Terminal Aerodrome Forecast
Issued by NWS Sioux Falls, SD

Home | Current Version | Previous Version | Text Only | Print | Product List | Glossary Off
Versions: 1 2 3 4 5 6 7 8 9 10 11 12 13 14

000
FTUS43 KFSD 171720
TAFSUX
TAF
KSUX 171720Z 1718/1818 31016G24KT P6SM SKC
     FM172200 31010KT P6SM SKC
     FM180400 16004KT P6SM FEW250
     FM180900 17004KT P6SM VCTS BKN100CB
     FM181200 16008KT P6SM BKN150
     FM181400 20008KT P6SM SCT200=

USA.gov is the U.S. government's official web portal to all federal, state and local government web resources and services.